sensor_id;sensor_type;location;lat;lon;timestamp;P1;durP1;ratioP1;P2;durP2;ratioP2
9934;SDS011;5006;41.828;23.478;2023-12-29T00:00:47;2.75;;;2.50;;
9934;SDS011;5006;41.828;23.478;2023-12-29T00:01:54;3.38;;;2.20;;
9934;SDS011;5006;41.828;23.478;2023-12-29T00:03:00;3.65;;;2.38;;
9934;SDS011;5006;41.828;23.478;2023-12-29T00:04:07;2.58;;;1.98;;
9934;SDS011;5006;41.828;23.478;2023-12-29T00:05:13;3.42;;;2.33;;
9934;SDS011;5006;41.828;23.478;2023-12-29T00:06:19;2.58;;;2.10;;
9934;SDS011;5006;41.828;23.478;2023-12-29T00:07:26;3.80;;;2.05;;
9934;SDS011;5006;41.828;23.478;2023-12-29T00:08:32;2.97;;;2.30;;
9934;SDS011;5006;41.828;23.478;2023-12-29T00:09:37;2.35;;;2.13;;
9934;SDS011;5006;41.828;23.478;2023-12-29T00:10:45;3.20;;;2.60;;
9934;SDS011;5006;41.828;23.478;2023-12-29T00:11:51;3.40;;;2.70;;
9934;SDS011;5006;41.828;23.478;2023-12-29T00:13:00;5.30;;;2.72;;
9934;SDS011;5006;41.828;23.478;2023-12-29T00:14:06;3.85;;;2.40;;
9934;SDS011;5006;41.828;23.478;2023-12-29T00:15:12;4.35;;;2.55;;
9934;SDS011;5006;41.828;23.478;2023-12-29T00:16:22;3.50;;;2.55;;
9934;SDS011;5006;41.828;23.478;2023-12-29T00:17:28;3.40;;;2.70;;
9934;SDS011;5006;41.828;23.478;2023-12-29T00:18:36;3.05;;;2.58;;
9934;SDS011;5006;41.828;23.478;2023-12-29T00:19:42;4.10;;;2.10;;
9934;SDS011;5006;41.828;23.478;2023-12-29T00:20:48;2.70;;;2.25;;
9934;SDS011;5006;41.828;23.478;2023-12-29T00:21:55;2.47;;;2.13;;
9934;SDS011;5006;41.828;23.478;2023-12-29T00:23:01;2.47;;;2.00;;
9934;SDS011;5006;41.828;23.478;2023-12-29T00:24:08;2.65;;;1.90;;
9934;SDS011;5006;41.828;23.478;2023-12-29T00:25:13;3.10;;;2.28;;
9934;SDS011;5006;41.828;23.478;2023-12-29T00:26:21;2.70;;;1.90;;
9934;SDS011;5006;41.828;23.478;2023-12-29T00:27:31;3.80;;;2.08;;
9934;SDS011;5006;41.828;23.478;2023-12-29T00:28:39;4.22;;;2.35;;
9934;SDS011;5006;41.828;23.478;2023-12-29T00:29:45;3.53;;;2.33;;
9934;SDS011;5006;41.828;23.478;2023-12-29T00:30:52;3.30;;;2.58;;
9934;SDS011;5006;41.828;23.478;2023-12-29T00:31:57;2.97;;;2.30;;
9934;SDS011;5006;41.828;23.478;2023-12-29T00:33:04;3.33;;;2.42;;
9934;SDS011;5006;41.828;23.478;2023-12-29T00:34:10;2.38;;;1.90;;
9934;SDS011;5006;41.828;23.478;2023-12-29T00:35:16;2.45;;;2.13;;
9934;SDS011;5006;41.828;23.478;2023-12-29T00:36:21;3.10;;;2.30;;
9934;SDS011;5006;41.828;23.478;2023-12-29T00:37:30;2.78;;;2.08;;
9934;SDS011;5006;41.828;23.478;2023-12-29T00:38:35;3.72;;;2.40;;
9934;SDS011;5006;41.828;23.478;2023-12-29T00:39:41;3.38;;;2.38;;
9934;SDS011;5006;41.828;23.478;2023-12-29T00:40:46;3.63;;;2.72;;
9934;SDS011;5006;41.828;23.478;2023-12-29T00:41:52;2.90;;;2.22;;
9934;SDS011;5006;41.828;23.478;2023-12-29T00:42:57;2.97;;;2.25;;
9934;SDS011;5006;41.828;23.478;2023-12-29T00:44:06;3.10;;;2.33;;
9934;SDS011;5006;41.828;23.478;2023-12-29T00:45:12;4.07;;;2.20;;
9934;SDS011;5006;41.828;23.478;2023-12-29T00:46:18;3.08;;;2.10;;
9934;SDS011;5006;41.828;23.478;2023-12-29T00:47:23;3.83;;;1.75;;
9934;SDS011;5006;41.828;23.478;2023-12-29T00:48:29;3.92;;;2.30;;
9934;SDS011;5006;41.828;23.478;2023-12-29T00:49:37;4.50;;;3.42;;
9934;SDS011;5006;41.828;23.478;2023-12-29T00:50:45;2.60;;;2.20;;
9934;SDS011;5006;41.828;23.478;2023-12-29T00:51:50;2.58;;;1.83;;
9934;SDS011;5006;41.828;23.478;2023-12-29T00:52:57;2.88;;;1.70;;
9934;SDS011;5006;41.828;23.478;2023-12-29T00:54:03;3.28;;;2.10;;
9934;SDS011;5006;41.828;23.478;2023-12-29T00:55:08;3.00;;;2.13;;
9934;SDS011;5006;41.828;23.478;2023-12-29T00:56:15;3.35;;;2.28;;
9934;SDS011;5006;41.828;23.478;2023-12-29T00:57:20;4.15;;;2.45;;
9934;SDS011;5006;41.828;23.478;2023-12-29T00:58:26;2.85;;;2.30;;
9934;SDS011;5006;41.828;23.478;2023-12-29T00:59:36;4.28;;;2.60;;
9934;SDS011;5006;41.828;23.478;2023-12-29T01:00:43;3.97;;;2.60;;
9934;SDS011;5006;41.828;23.478;2023-12-29T01:01:48;5.18;;;2.65;;
9934;SDS011;5006;41.828;23.478;2023-12-29T01:02:55;3.60;;;2.60;;
9934;SDS011;5006;41.828;23.478;2023-12-29T01:04:00;3.95;;;2.80;;
9934;SDS011;5006;41.828;23.478;2023-12-29T01:05:07;3.67;;;2.60;;
9934;SDS011;5006;41.828;23.478;2023-12-29T01:06:13;3.58;;;2.40;;
9934;SDS011;5006;41.828;23.478;2023-12-29T01:07:18;2.83;;;2.25;;
9934;SDS011;5006;41.828;23.478;2023-12-29T01:08:25;3.08;;;2.35;;
9934;SDS011;5006;41.828;23.478;2023-12-29T01:09:31;3.55;;;2.58;;
9934;SDS011;5006;41.828;23.478;2023-12-29T01:10:38;2.72;;;2.42;;
9934;SDS011;5006;41.828;23.478;2023-12-29T01:11:43;4.03;;;2.70;;
9934;SDS011;5006;41.828;23.478;2023-12-29T01:12:48;3.85;;;2.50;;
9934;SDS011;5006;41.828;23.478;2023-12-29T01:13:54;4.90;;;3.13;;
9934;SDS011;5006;41.828;23.478;2023-12-29T01:15:02;5.47;;;2.53;;
9934;SDS011;5006;41.828;23.478;2023-12-29T01:16:10;3.38;;;2.75;;
9934;SDS011;5006;41.828;23.478;2023-12-29T01:17:15;4.35;;;2.90;;
9934;SDS011;5006;41.828;23.478;2023-12-29T01:18:21;3.75;;;2.95;;
9934;SDS011;5006;41.828;23.478;2023-12-29T01:19:26;4.18;;;3.00;;
9934;SDS011;5006;41.828;23.478;2023-12-29T01:20:33;3.92;;;2.70;;
9934;SDS011;5006;41.828;23.478;2023-12-29T01:21:40;3.78;;;2.53;;
9934;SDS011;5006;41.828;23.478;2023-12-29T01:22:46;2.92;;;2.60;;
9934;SDS011;5006;41.828;23.478;2023-12-29T01:23:51;4.82;;;2.85;;
9934;SDS011;5006;41.828;23.478;2023-12-29T01:24:58;4.70;;;2.63;;
9934;SDS011;5006;41.828;23.478;2023-12-29T01:26:03;3.22;;;2.50;;
9934;SDS011;5006;41.828;23.478;2023-12-29T01:27:09;4.03;;;3.00;;
9934;SDS011;5006;41.828;23.478;2023-12-29T01:28:14;4.70;;;2.90;;
9934;SDS011;5006;41.828;23.478;2023-12-29T01:29:20;2.92;;;2.40;;
9934;SDS011;5006;41.828;23.478;2023-12-29T01:30:27;3.25;;;2.60;;
9934;SDS011;5006;41.828;23.478;2023-12-29T01:31:32;4.43;;;2.50;;
9934;SDS011;5006;41.828;23.478;2023-12-29T01:32:39;3.47;;;2.50;;
9934;SDS011;5006;41.828;23.478;2023-12-29T01:33:45;3.88;;;2.60;;
9934;SDS011;5006;41.828;23.478;2023-12-29T01:34:51;4.22;;;2.80;;
9934;SDS011;5006;41.828;23.478;2023-12-29T01:35:57;3.53;;;2.25;;
9934;SDS011;5006;41.828;23.478;2023-12-29T01:37:03;2.92;;;2.15;;
9934;SDS011;5006;41.828;23.478;2023-12-29T01:38:08;3.20;;;2.13;;
9934;SDS011;5006;41.828;23.478;2023-12-29T01:39:14;2.88;;;2.55;;
9934;SDS011;5006;41.828;23.478;2023-12-29T01:40:22;2.63;;;2.10;;
9934;SDS011;5006;41.828;23.478;2023-12-29T01:41:29;3.75;;;2.30;;
9934;SDS011;5006;41.828;23.478;2023-12-29T01:42:36;4.30;;;2.60;;
9934;SDS011;5006;41.828;23.478;2023-12-29T01:44:00;6.47;;;2.60;;
9934;SDS011;5006;41.828;23.478;2023-12-29T01:45:26;3.55;;;2.50;;
9934;SDS011;5006;41.828;23.478;2023-12-29T01:46:33;2.75;;;2.47;;
9934;SDS011;5006;41.828;23.478;2023-12-29T01:47:57;5.07;;;3.70;;
9934;SDS011;5006;41.828;23.478;2023-12-29T01:49:03;5.10;;;3.90;;
9934;SDS011;5006;41.828;23.478;2023-12-29T01:50:08;4.55;;;3.33;;
9934;SDS011;5006;41.828;23.478;2023-12-29T01:51:16;3.95;;;2.72;;
9934;SDS011;5006;41.828;23.478;2023-12-29T01:52:22;4.63;;;2.45;;
9934;SDS011;5006;41.828;23.478;2023-12-29T01:53:31;2.78;;;2.50;;
9934;SDS011;5006;41.828;23.478;2023-12-29T01:54:36;4.78;;;2.70;;
9934;SDS011;5006;41.828;23.478;2023-12-29T01:55:46;4.13;;;3.08;;
9934;SDS011;5006;41.828;23.478;2023-12-29T01:56:53;5.03;;;3.50;;
9934;SDS011;5006;41.828;23.478;2023-12-29T01:58:03;5.25;;;3.85;;
9934;SDS011;5006;41.828;23.478;2023-12-29T01:59:09;3.60;;;2.80;;
9934;SDS011;5006;41.828;23.478;2023-12-29T02:00:16;4.30;;;2.90;;
9934;SDS011;5006;41.828;23.478;2023-12-29T02:01:24;5.60;;;3.25;;
9934;SDS011;5006;41.828;23.478;2023-12-29T02:02:30;4.80;;;3.85;;
9934;SDS011;5006;41.828;23.478;2023-12-29T02:03:35;4.63;;;3.47;;
9934;SDS011;5006;41.828;23.478;2023-12-29T02:04:42;4.38;;;3.70;;
9934;SDS011;5006;41.828;23.478;2023-12-29T02:05:50;5.45;;;4.28;;
9934;SDS011;5006;41.828;23.478;2023-12-29T02:06:58;6.55;;;4.00;;
9934;SDS011;5006;41.828;23.478;2023-12-29T02:08:05;5.65;;;3.92;;
9934;SDS011;5006;41.828;23.478;2023-12-29T02:09:12;5.53;;;3.90;;
9934;SDS011;5006;41.828;23.478;2023-12-29T02:10:20;6.57;;;4.15;;
9934;SDS011;5006;41.828;23.478;2023-12-29T02:11:28;4.32;;;3.70;;
9934;SDS011;5006;41.828;23.478;2023-12-29T02:12:34;6.05;;;3.45;;
9934;SDS011;5006;41.828;23.478;2023-12-29T02:13:41;4.22;;;3.17;;
9934;SDS011;5006;41.828;23.478;2023-12-29T02:14:46;4.43;;;3.58;;
9934;SDS011;5006;41.828;23.478;2023-12-29T02:15:52;4.65;;;3.13;;
9934;SDS011;5006;41.828;23.478;2023-12-29T02:17:04;4.78;;;3.63;;
9934;SDS011;5006;41.828;23.478;2023-12-29T02:18:16;5.00;;;3.47;;
9934;SDS011;5006;41.828;23.478;2023-12-29T02:19:25;5.40;;;2.88;;
9934;SDS011;5006;41.828;23.478;2023-12-29T02:20:44;4.93;;;3.50;;
9934;SDS011;5006;41.828;23.478;2023-12-29T02:21:49;4.95;;;3.40;;
9934;SDS011;5006;41.828;23.478;2023-12-29T02:22:55;5.07;;;3.70;;
9934;SDS011;5006;41.828;23.478;2023-12-29T02:24:01;4.50;;;3.80;;
9934;SDS011;5006;41.828;23.478;2023-12-29T02:25:10;5.85;;;4.13;;
9934;SDS011;5006;41.828;23.478;2023-12-29T02:26:17;6.63;;;4.65;;
9934;SDS011;5006;41.828;23.478;2023-12-29T02:27:31;7.80;;;5.10;;
9934;SDS011;5006;41.828;23.478;2023-12-29T02:28:45;7.53;;;5.00;;
9934;SDS011;5006;41.828;23.478;2023-12-29T02:30:08;6.07;;;4.20;;
9934;SDS011;5006;41.828;23.478;2023-12-29T02:31:16;6.20;;;3.78;;
9934;SDS011;5006;41.828;23.478;2023-12-29T02:32:25;6.00;;;3.70;;
9934;SDS011;5006;41.828;23.478;2023-12-29T02:33:36;7.53;;;4.55;;
9934;SDS011;5006;41.828;23.478;2023-12-29T02:34:48;5.85;;;4.15;;
9934;SDS011;5006;41.828;23.478;2023-12-29T02:35:56;5.28;;;4.07;;
9934;SDS011;5006;41.828;23.478;2023-12-29T02:37:06;5.22;;;3.67;;
9934;SDS011;5006;41.828;23.478;2023-12-29T02:38:13;4.60;;;3.70;;
9934;SDS011;5006;41.828;23.478;2023-12-29T02:39:20;5.18;;;3.70;;
9934;SDS011;5006;41.828;23.478;2023-12-29T02:40:29;4.32;;;3.42;;
9934;SDS011;5006;41.828;23.478;2023-12-29T02:41:35;3.60;;;3.13;;
9934;SDS011;5006;41.828;23.478;2023-12-29T02:42:44;6.35;;;4.15;;
9934;SDS011;5006;41.828;23.478;2023-12-29T02:43:52;4.50;;;3.35;;
9934;SDS011;5006;41.828;23.478;2023-12-29T02:44:57;4.63;;;3.17;;
9934;SDS011;5006;41.828;23.478;2023-12-29T02:46:04;4.90;;;3.40;;
9934;SDS011;5006;41.828;23.478;2023-12-29T02:47:10;7.88;;;4.97;;
9934;SDS011;5006;41.828;23.478;2023-12-29T02:48:17;4.55;;;3.85;;
9934;SDS011;5006;41.828;23.478;2023-12-29T02:49:22;7.15;;;5.45;;
9934;SDS011;5006;41.828;23.478;2023-12-29T02:50:29;7.07;;;4.65;;
9934;SDS011;5006;41.828;23.478;2023-12-29T02:51:34;5.00;;;3.50;;
9934;SDS011;5006;41.828;23.478;2023-12-29T02:52:40;3.60;;;3.13;;
9934;SDS011;5006;41.828;23.478;2023-12-29T02:53:45;3.90;;;2.80;;
9934;SDS011;5006;41.828;23.478;2023-12-29T02:54:53;5.15;;;2.63;;
9934;SDS011;5006;41.828;23.478;2023-12-29T02:56:00;3.45;;;2.65;;
9934;SDS011;5006;41.828;23.478;2023-12-29T02:57:06;3.78;;;2.53;;
9934;SDS011;5006;41.828;23.478;2023-12-29T02:58:12;4.38;;;2.85;;
9934;SDS011;5006;41.828;23.478;2023-12-29T02:59:18;3.90;;;2.90;;
9934;SDS011;5006;41.828;23.478;2023-12-29T03:00:23;3.47;;;2.80;;
9934;SDS011;5006;41.828;23.478;2023-12-29T03:01:31;4.55;;;3.10;;
9934;SDS011;5006;41.828;23.478;2023-12-29T03:02:37;3.97;;;3.00;;
9934;SDS011;5006;41.828;23.478;2023-12-29T03:03:43;4.25;;;2.83;;
9934;SDS011;5006;41.828;23.478;2023-12-29T03:04:50;4.43;;;3.55;;
9934;SDS011;5006;41.828;23.478;2023-12-29T03:05:56;3.75;;;3.00;;
9934;SDS011;5006;41.828;23.478;2023-12-29T03:07:01;3.75;;;2.97;;
9934;SDS011;5006;41.828;23.478;2023-12-29T03:08:08;3.58;;;3.05;;
9934;SDS011;5006;41.828;23.478;2023-12-29T03:09:14;3.47;;;2.85;;
9934;SDS011;5006;41.828;23.478;2023-12-29T03:10:20;4.35;;;3.47;;
9934;SDS011;5006;41.828;23.478;2023-12-29T03:11:28;4.78;;;3.30;;
9934;SDS011;5006;41.828;23.478;2023-12-29T03:12:35;4.80;;;3.53;;
9934;SDS011;5006;41.828;23.478;2023-12-29T03:13:40;3.63;;;3.00;;
9934;SDS011;5006;41.828;23.478;2023-12-29T03:14:45;5.45;;;3.67;;
9934;SDS011;5006;41.828;23.478;2023-12-29T03:15:52;4.55;;;2.92;;
9934;SDS011;5006;41.828;23.478;2023-12-29T03:16:57;4.30;;;2.70;;
9934;SDS011;5006;41.828;23.478;2023-12-29T03:18:04;3.20;;;2.90;;
9934;SDS011;5006;41.828;23.478;2023-12-29T03:19:09;3.42;;;2.63;;
9934;SDS011;5006;41.828;23.478;2023-12-29T03:20:15;5.25;;;3.20;;
9934;SDS011;5006;41.828;23.478;2023-12-29T03:21:21;4.60;;;2.75;;
9934;SDS011;5006;41.828;23.478;2023-12-29T03:22:28;5.90;;;2.50;;
9934;SDS011;5006;41.828;23.478;2023-12-29T03:23:33;3.22;;;2.25;;
9934;SDS011;5006;41.828;23.478;2023-12-29T03:24:39;3.30;;;2.17;;
9934;SDS011;5006;41.828;23.478;2023-12-29T03:25:45;2.80;;;2.40;;
9934;SDS011;5006;41.828;23.478;2023-12-29T03:26:53;2.17;;;1.85;;
9934;SDS011;5006;41.828;23.478;2023-12-29T03:27:59;4.15;;;2.60;;
9934;SDS011;5006;41.828;23.478;2023-12-29T03:29:06;4.28;;;2.30;;
9934;SDS011;5006;41.828;23.478;2023-12-29T03:30:13;3.05;;;2.10;;
9934;SDS011;5006;41.828;23.478;2023-12-29T03:31:21;3.88;;;2.67;;
9934;SDS011;5006;41.828;23.478;2023-12-29T03:32:26;2.08;;;1.88;;
9934;SDS011;5006;41.828;23.478;2023-12-29T03:33:33;3.17;;;2.28;;
9934;SDS011;5006;41.828;23.478;2023-12-29T03:34:39;3.28;;;2.35;;
9934;SDS011;5006;41.828;23.478;2023-12-29T03:35:46;4.82;;;2.45;;
9934;SDS011;5006;41.828;23.478;2023-12-29T03:36:52;4.35;;;2.63;;
9934;SDS011;5006;41.828;23.478;2023-12-29T03:37:59;3.38;;;2.47;;
9934;SDS011;5006;41.828;23.478;2023-12-29T03:39:05;3.03;;;2.20;;
9934;SDS011;5006;41.828;23.478;2023-12-29T03:40:12;4.75;;;3.00;;
9934;SDS011;5006;41.828;23.478;2023-12-29T03:41:18;4.10;;;2.85;;
9934;SDS011;5006;41.828;23.478;2023-12-29T03:42:27;2.83;;;2.30;;
9934;SDS011;5006;41.828;23.478;2023-12-29T03:43:32;3.22;;;2.40;;
9934;SDS011;5006;41.828;23.478;2023-12-29T03:44:38;2.83;;;2.55;;
9934;SDS011;5006;41.828;23.478;2023-12-29T03:45:45;5.85;;;3.78;;
9934;SDS011;5006;41.828;23.478;2023-12-29T03:46:51;7.13;;;4.50;;
9934;SDS011;5006;41.828;23.478;2023-12-29T03:47:56;6.15;;;4.18;;
9934;SDS011;5006;41.828;23.478;2023-12-29T03:49:03;5.05;;;3.20;;
9934;SDS011;5006;41.828;23.478;2023-12-29T03:50:09;4.85;;;3.10;;
9934;SDS011;5006;41.828;23.478;2023-12-29T03:51:17;4.40;;;2.85;;
9934;SDS011;5006;41.828;23.478;2023-12-29T03:52:24;4.25;;;2.58;;
9934;SDS011;5006;41.828;23.478;2023-12-29T03:53:30;3.22;;;2.30;;
9934;SDS011;5006;41.828;23.478;2023-12-29T03:54:36;4.28;;;2.38;;
9934;SDS011;5006;41.828;23.478;2023-12-29T03:55:43;3.58;;;2.92;;
9934;SDS011;5006;41.828;23.478;2023-12-29T03:56:49;3.60;;;2.92;;
9934;SDS011;5006;41.828;23.478;2023-12-29T03:57:57;4.57;;;3.00;;
9934;SDS011;5006;41.828;23.478;2023-12-29T03:59:03;3.03;;;2.72;;
9934;SDS011;5006;41.828;23.478;2023-12-29T04:00:11;3.53;;;2.53;;
9934;SDS011;5006;41.828;23.478;2023-12-29T04:01:19;2.80;;;2.30;;
9934;SDS011;5006;41.828;23.478;2023-12-29T04:02:25;4.95;;;2.22;;
9934;SDS011;5006;41.828;23.478;2023-12-29T04:03:31;3.13;;;2.40;;
9934;SDS011;5006;41.828;23.478;2023-12-29T04:04:38;2.85;;;1.83;;
9934;SDS011;5006;41.828;23.478;2023-12-29T04:05:44;3.33;;;2.10;;
9934;SDS011;5006;41.828;23.478;2023-12-29T04:06:52;2.58;;;2.10;;
9934;SDS011;5006;41.828;23.478;2023-12-29T04:07:57;2.45;;;1.90;;
9934;SDS011;5006;41.828;23.478;2023-12-29T04:09:03;4.30;;;2.20;;
9934;SDS011;5006;41.828;23.478;2023-12-29T04:10:08;3.88;;;2.10;;
9934;SDS011;5006;41.828;23.478;2023-12-29T04:11:15;3.35;;;2.25;;
9934;SDS011;5006;41.828;23.478;2023-12-29T04:12:20;2.85;;;2.33;;
9934;SDS011;5006;41.828;23.478;2023-12-29T04:13:29;2.40;;;2.20;;
9934;SDS011;5006;41.828;23.478;2023-12-29T04:14:34;3.15;;;2.45;;
9934;SDS011;5006;41.828;23.478;2023-12-29T04:15:41;3.72;;;2.60;;
9934;SDS011;5006;41.828;23.478;2023-12-29T04:16:46;4.15;;;2.83;;
9934;SDS011;5006;41.828;23.478;2023-12-29T04:17:52;3.28;;;2.45;;
9934;SDS011;5006;41.828;23.478;2023-12-29T04:18:58;3.08;;;2.42;;
9934;SDS011;5006;41.828;23.478;2023-12-29T04:20:06;3.42;;;2.13;;
9934;SDS011;5006;41.828;23.478;2023-12-29T04:21:13;2.88;;;2.28;;
9934;SDS011;5006;41.828;23.478;2023-12-29T04:22:19;2.95;;;2.40;;
9934;SDS011;5006;41.828;23.478;2023-12-29T04:23:24;2.67;;;2.00;;
9934;SDS011;5006;41.828;23.478;2023-12-29T04:24:30;2.60;;;2.20;;
9934;SDS011;5006;41.828;23.478;2023-12-29T04:25:36;2.33;;;1.98;;
9934;SDS011;5006;41.828;23.478;2023-12-29T04:26:43;2.22;;;2.00;;
9934;SDS011;5006;41.828;23.478;2023-12-29T04:27:51;4.70;;;4.03;;
9934;SDS011;5006;41.828;23.478;2023-12-29T04:28:59;7.32;;;5.93;;
9934;SDS011;5006;41.828;23.478;2023-12-29T04:30:06;5.32;;;4.20;;
9934;SDS011;5006;41.828;23.478;2023-12-29T04:31:12;4.95;;;4.40;;
9934;SDS011;5006;41.828;23.478;2023-12-29T04:32:19;5.55;;;4.05;;
9934;SDS011;5006;41.828;23.478;2023-12-29T04:33:25;3.78;;;3.03;;
9934;SDS011;5006;41.828;23.478;2023-12-29T04:34:32;3.38;;;2.30;;
9934;SDS011;5006;41.828;23.478;2023-12-29T04:35:37;4.82;;;2.33;;
9934;SDS011;5006;41.828;23.478;2023-12-29T04:36:43;3.42;;;2.30;;
9934;SDS011;5006;41.828;23.478;2023-12-29T04:37:50;2.85;;;2.33;;
9934;SDS011;5006;41.828;23.478;2023-12-29T04:38:55;2.42;;;2.00;;
9934;SDS011;5006;41.828;23.478;2023-12-29T04:40:01;2.40;;;2.08;;
9934;SDS011;5006;41.828;23.478;2023-12-29T04:41:08;3.33;;;2.35;;
9934;SDS011;5006;41.828;23.478;2023-12-29T04:42:14;3.72;;;2.85;;
9934;SDS011;5006;41.828;23.478;2023-12-29T04:43:20;4.65;;;2.90;;
9934;SDS011;5006;41.828;23.478;2023-12-29T04:44:27;5.55;;;3.00;;
9934;SDS011;5006;41.828;23.478;2023-12-29T04:45:34;2.90;;;2.42;;
9934;SDS011;5006;41.828;23.478;2023-12-29T04:46:39;2.30;;;2.00;;
9934;SDS011;5006;41.828;23.478;2023-12-29T04:47:45;2.40;;;1.85;;
9934;SDS011;5006;41.828;23.478;2023-12-29T04:48:51;2.38;;;1.98;;
9934;SDS011;5006;41.828;23.478;2023-12-29T04:49:57;2.65;;;1.95;;
9934;SDS011;5006;41.828;23.478;2023-12-29T04:51:04;2.55;;;2.10;;
9934;SDS011;5006;41.828;23.478;2023-12-29T04:52:11;3.00;;;2.22;;
9934;SDS011;5006;41.828;23.478;2023-12-29T04:53:17;2.90;;;1.80;;
9934;SDS011;5006;41.828;23.478;2023-12-29T04:54:24;1.90;;;1.70;;
9934;SDS011;5006;41.828;23.478;2023-12-29T04:55:30;2.45;;;1.98;;
9934;SDS011;5006;41.828;23.478;2023-12-29T04:56:36;4.63;;;3.20;;
9934;SDS011;5006;41.828;23.478;2023-12-29T04:57:42;4.55;;;3.42;;
9934;SDS011;5006;41.828;23.478;2023-12-29T04:58:51;3.45;;;2.45;;
9934;SDS011;5006;41.828;23.478;2023-12-29T04:59:58;2.58;;;2.28;;
9934;SDS011;5006;41.828;23.478;2023-12-29T05:01:04;3.72;;;2.30;;
9934;SDS011;5006;41.828;23.478;2023-12-29T05:02:09;2.72;;;2.05;;
9934;SDS011;5006;41.828;23.478;2023-12-29T05:03:16;3.03;;;2.22;;
9934;SDS011;5006;41.828;23.478;2023-12-29T05:04:22;3.50;;;2.75;;
9934;SDS011;5006;41.828;23.478;2023-12-29T05:05:28;3.58;;;2.60;;
9934;SDS011;5006;41.828;23.478;2023-12-29T05:06:33;3.33;;;2.47;;
9934;SDS011;5006;41.828;23.478;2023-12-29T05:07:40;3.08;;;2.00;;
9934;SDS011;5006;41.828;23.478;2023-12-29T05:08:45;5.40;;;3.45;;
9934;SDS011;5006;41.828;23.478;2023-12-29T05:09:51;4.95;;;3.92;;
9934;SDS011;5006;41.828;23.478;2023-12-29T05:10:58;5.97;;;3.17;;
9934;SDS011;5006;41.828;23.478;2023-12-29T05:12:05;5.65;;;3.60;;
9934;SDS011;5006;41.828;23.478;2023-12-29T05:13:10;8.18;;;6.22;;
9934;SDS011;5006;41.828;23.478;2023-12-29T05:14:16;7.40;;;5.45;;
9934;SDS011;5006;41.828;23.478;2023-12-29T05:15:23;4.15;;;3.60;;
9934;SDS011;5006;41.828;23.478;2023-12-29T05:16:29;4.28;;;3.58;;
9934;SDS011;5006;41.828;23.478;2023-12-29T05:17:35;3.80;;;2.70;;
9934;SDS011;5006;41.828;23.478;2023-12-29T05:18:44;7.70;;;6.43;;
9934;SDS011;5006;41.828;23.478;2023-12-29T05:19:49;9.02;;;6.53;;
9934;SDS011;5006;41.828;23.478;2023-12-29T05:20:55;6.65;;;4.80;;
9934;SDS011;5006;41.828;23.478;2023-12-29T05:22:00;7.75;;;5.40;;
9934;SDS011;5006;41.828;23.478;2023-12-29T05:23:06;6.35;;;4.80;;
9934;SDS011;5006;41.828;23.478;2023-12-29T05:24:11;7.63;;;4.82;;
9934;SDS011;5006;41.828;23.478;2023-12-29T05:25:19;8.77;;;5.35;;
9934;SDS011;5006;41.828;23.478;2023-12-29T05:26:26;8.57;;;5.10;;
9934;SDS011;5006;41.828;23.478;2023-12-29T05:27:34;8.77;;;5.10;;
9934;SDS011;5006;41.828;23.478;2023-12-29T05:28:39;6.05;;;4.22;;
9934;SDS011;5006;41.828;23.478;2023-12-29T05:29:45;7.13;;;4.30;;
9934;SDS011;5006;41.828;23.478;2023-12-29T05:30:53;5.65;;;4.00;;
9934;SDS011;5006;41.828;23.478;2023-12-29T05:31:59;6.00;;;4.47;;
9934;SDS011;5006;41.828;23.478;2023-12-29T05:33:07;6.97;;;5.20;;
9934;SDS011;5006;41.828;23.478;2023-12-29T05:34:13;8.23;;;6.07;;
9934;SDS011;5006;41.828;23.478;2023-12-29T05:35:18;7.35;;;4.97;;
9934;SDS011;5006;41.828;23.478;2023-12-29T05:36:24;8.43;;;5.40;;
9934;SDS011;5006;41.828;23.478;2023-12-29T05:37:29;5.60;;;4.10;;
9934;SDS011;5006;41.828;23.478;2023-12-29T05:38:37;4.05;;;3.22;;
9934;SDS011;5006;41.828;23.478;2023-12-29T05:39:42;4.03;;;3.22;;
9934;SDS011;5006;41.828;23.478;2023-12-29T05:40:47;4.38;;;2.25;;
9934;SDS011;5006;41.828;23.478;2023-12-29T05:41:54;2.83;;;2.00;;
9934;SDS011;5006;41.828;23.478;2023-12-29T05:43:01;2.60;;;1.77;;
9934;SDS011;5006;41.828;23.478;2023-12-29T05:44:08;2.33;;;1.92;;
9934;SDS011;5006;41.828;23.478;2023-12-29T05:45:15;2.72;;;2.28;;
9934;SDS011;5006;41.828;23.478;2023-12-29T05:46:24;2.55;;;2.10;;
9934;SDS011;5006;41.828;23.478;2023-12-29T05:47:29;4.22;;;2.90;;
9934;SDS011;5006;41.828;23.478;2023-12-29T05:48:35;6.15;;;4.05;;
9934;SDS011;5006;41.828;23.478;2023-12-29T05:49:40;4.65;;;3.40;;
9934;SDS011;5006;41.828;23.478;2023-12-29T05:50:46;3.05;;;2.47;;
9934;SDS011;5006;41.828;23.478;2023-12-29T05:51:51;4.15;;;2.80;;
9934;SDS011;5006;41.828;23.478;2023-12-29T05:52:58;6.22;;;4.25;;
9934;SDS011;5006;41.828;23.478;2023-12-29T05:54:03;4.85;;;2.90;;
9934;SDS011;5006;41.828;23.478;2023-12-29T05:55:10;3.25;;;2.33;;
9934;SDS011;5006;41.828;23.478;2023-12-29T05:56:15;4.72;;;2.00;;
9934;SDS011;5006;41.828;23.478;2023-12-29T05:57:23;3.13;;;2.25;;
9934;SDS011;5006;41.828;23.478;2023-12-29T05:58:28;4.18;;;2.50;;
9934;SDS011;5006;41.828;23.478;2023-12-29T05:59:33;3.80;;;2.70;;
9934;SDS011;5006;41.828;23.478;2023-12-29T06:00:41;2.50;;;2.13;;
9934;SDS011;5006;41.828;23.478;2023-12-29T06:01:48;4.25;;;2.65;;
9934;SDS011;5006;41.828;23.478;2023-12-29T06:02:55;3.03;;;2.35;;
9934;SDS011;5006;41.828;23.478;2023-12-29T06:04:01;5.07;;;4.13;;
9934;SDS011;5006;41.828;23.478;2023-12-29T06:05:07;25.70;;;18.75;;
9934;SDS011;5006;41.828;23.478;2023-12-29T06:06:14;88.50;;;50.33;;
9934;SDS011;5006;41.828;23.478;2023-12-29T06:07:21;117.22;;;68.95;;
9934;SDS011;5006;41.828;23.478;2023-12-29T06:08:26;113.88;;;67.63;;
9934;SDS011;5006;41.828;23.478;2023-12-29T06:09:32;106.45;;;64.50;;
9934;SDS011;5006;41.828;23.478;2023-12-29T06:10:39;47.38;;;29.80;;
9934;SDS011;5006;41.828;23.478;2023-12-29T06:11:45;45.50;;;26.75;;
9934;SDS011;5006;41.828;23.478;2023-12-29T06:12:51;15.65;;;9.93;;
9934;SDS011;5006;41.828;23.478;2023-12-29T06:13:57;9.13;;;5.68;;
9934;SDS011;5006;41.828;23.478;2023-12-29T06:15:03;10.43;;;6.97;;
9934;SDS011;5006;41.828;23.478;2023-12-29T06:16:09;24.80;;;14.27;;
9934;SDS011;5006;41.828;23.478;2023-12-29T06:17:23;36.22;;;20.63;;
9934;SDS011;5006;41.828;23.478;2023-12-29T06:18:29;27.33;;;14.35;;
9934;SDS011;5006;41.828;23.478;2023-12-29T06:19:35;18.67;;;10.68;;
9934;SDS011;5006;41.828;23.478;2023-12-29T06:20:43;11.70;;;6.40;;
9934;SDS011;5006;41.828;23.478;2023-12-29T06:21:49;8.02;;;4.57;;
9934;SDS011;5006;41.828;23.478;2023-12-29T06:22:55;6.47;;;3.63;;
9934;SDS011;5006;41.828;23.478;2023-12-29T06:24:01;7.57;;;3.38;;
9934;SDS011;5006;41.828;23.478;2023-12-29T06:25:09;6.20;;;3.53;;
9934;SDS011;5006;41.828;23.478;2023-12-29T06:26:15;5.50;;;3.22;;
9934;SDS011;5006;41.828;23.478;2023-12-29T06:27:23;7.90;;;3.65;;
9934;SDS011;5006;41.828;23.478;2023-12-29T06:28:28;5.45;;;3.92;;
9934;SDS011;5006;41.828;23.478;2023-12-29T06:29:34;4.30;;;2.88;;
9934;SDS011;5006;41.828;23.478;2023-12-29T06:30:40;4.38;;;3.35;;
9934;SDS011;5006;41.828;23.478;2023-12-29T06:31:46;9.85;;;2.28;;
9934;SDS011;5006;41.828;23.478;2023-12-29T06:32:53;3.05;;;2.20;;
9934;SDS011;5006;41.828;23.478;2023-12-29T06:34:00;6.05;;;2.75;;
9934;SDS011;5006;41.828;23.478;2023-12-29T06:35:08;8.88;;;2.15;;
9934;SDS011;5006;41.828;23.478;2023-12-29T06:36:20;3.15;;;2.10;;
9934;SDS011;5006;41.828;23.478;2023-12-29T06:37:25;4.88;;;2.75;;
9934;SDS011;5006;41.828;23.478;2023-12-29T06:38:31;4.55;;;2.67;;
9934;SDS011;5006;41.828;23.478;2023-12-29T06:39:37;3.85;;;2.53;;
9934;SDS011;5006;41.828;23.478;2023-12-29T06:40:44;6.82;;;3.58;;
9934;SDS011;5006;41.828;23.478;2023-12-29T06:41:49;5.28;;;3.30;;
9934;SDS011;5006;41.828;23.478;2023-12-29T06:42:57;4.28;;;2.88;;
9934;SDS011;5006;41.828;23.478;2023-12-29T06:44:02;2.67;;;2.03;;
9934;SDS011;5006;41.828;23.478;2023-12-29T06:45:10;3.85;;;2.88;;
9934;SDS011;5006;41.828;23.478;2023-12-29T06:46:15;4.57;;;3.08;;
9934;SDS011;5006;41.828;23.478;2023-12-29T06:47:20;4.18;;;3.03;;
9934;SDS011;5006;41.828;23.478;2023-12-29T06:48:29;4.25;;;2.85;;